»·PEaware :: AAL1652 KATL-KMIA

AAL1652 :: KATL-KMIA

FLIGHT INFORMATION

Flight Status: Arrived
Operator:
American Airlines
More flights by this operator :: More flights under this callsign
Pilot: Tamas B. (15764)
Aircraft: BOEING 737-800
(B738)
More flights by this aircraft type
Origin: KATL Hartsfield-Jackson Atlanta
United States
Destination: KMIA Miami Intl
United States
More flights between these airports :: More routes between these airports
Route: SMLTZ2 WALET OTK SSCOT4
File this flight plan on PilotEdge
Remarks: PBN / A1B1C1D1S1S2 DOF / 180114 REG / N800NN EET / KZJX0022 KZMA0054 OPR / AAL PER / C RMK / TCAS SIMBRIEF
Altitude:
(Current/Filed)
33,000ft
Speed:
(Current/Filed)
461kts
Departed: 14-Jan-18 11:47 AM
Arrived: 14-Jan-18 01:15 PM
Distance/Time
Traveled:
519nm/1:28
Distance/Time
To Go:
Arrived

Flight Plot

Page will automatically refresh every two minutes.

Flight plan parsing failed; only flown route is shown


Map Options




Map Legend


Flown Route
Filed Route
Departure Airport
Arrival Airport
Navaid (VOR, NDB)
Fix

Horizontal Profiles

Position Reports

Time Latitude Longitude Heading Altitude Ground
Speed
14-Jan-18 11:52 33.183631 -84.390138 142 23725ft 400kts
14-Jan-18 11:53 33.107102 -84.300183 143 25937ft 413kts
14-Jan-18 11:54 33.024745 -84.203295 143 28218ft 419kts
14-Jan-18 11:55 32.928484 -84.143709 170 30375ft 390kts
14-Jan-18 11:56 32.834015 -84.104941 171 32316ft 385kts
14-Jan-18 11:57 32.736870 -84.065247 171 33521ft 395kts
14-Jan-18 11:58 32.630596 -84.021826 170 33546ft 436kts
14-Jan-18 11:59 32.515799 -83.974686 170 33531ft 449kts
14-Jan-18 12:00 32.399817 -83.927130 170 33533ft 448kts
14-Jan-18 12:01 32.283011 -83.879765 170 33538ft 448kts
14-Jan-18 12:02 32.166251 -83.833118 170 33544ft 449kts
14-Jan-18 12:03 32.049991 -83.786729 170 33548ft 449kts
14-Jan-18 12:04 31.934272 -83.740568 170 33550ft 450kts
14-Jan-18 12:05 31.820551 -83.695178 170 33550ft 449kts
14-Jan-18 12:06 31.705591 -83.649284 170 33548ft 449kts
14-Jan-18 12:07 31.588737 -83.602620 170 33528ft 449kts
14-Jan-18 12:08 31.472286 -83.556132 170 33511ft 449kts
14-Jan-18 12:09 31.355595 -83.509533 170 33509ft 449kts
14-Jan-18 12:10 31.238672 -83.462821 169 33512ft 449kts
14-Jan-18 12:11 31.121260 -83.415896 170 33514ft 450kts
14-Jan-18 12:12 31.003904 -83.369010 169 33521ft 449kts
14-Jan-18 12:13 30.895217 -83.325589 170 33514ft 448kts
14-Jan-18 12:14 30.785559 -83.281768 170 33523ft 447kts
14-Jan-18 12:15 30.670422 -83.225046 165 33518ft 453kts
14-Jan-18 12:16 30.555700 -83.168240 165 33520ft 454kts
14-Jan-18 12:17 30.441072 -83.111666 165 33519ft 452kts
14-Jan-18 12:18 30.327733 -83.055723 165 33469ft 454kts
14-Jan-18 12:19 30.212550 -82.998845 165 33441ft 453kts
14-Jan-18 12:20 30.099507 -82.943012 166 33456ft 449kts
14-Jan-18 12:21 29.986012 -82.886948 166 33453ft 447kts
14-Jan-18 12:22 29.875232 -82.832209 167 33458ft 444kts
14-Jan-18 12:23 29.764620 -82.777527 167 33479ft 441kts
14-Jan-18 12:24 29.652527 -82.722138 167 33480ft 443kts
14-Jan-18 12:25 29.539988 -82.666478 167 33474ft 443kts
14-Jan-18 12:26 29.427789 -82.611000 167 33476ft 444kts
14-Jan-18 12:27 29.315211 -82.555324 167 33457ft 443kts
14-Jan-18 12:28 29.202852 -82.499714 166 33433ft 441kts
14-Jan-18 12:29 29.089119 -82.456083 189 33436ft 409kts
14-Jan-18 12:30 28.981824 -82.477363 200 33416ft 389kts
14-Jan-18 12:31 28.878083 -82.503459 201 33427ft 386kts
14-Jan-18 12:32 28.774563 -82.530120 201 33424ft 386kts
14-Jan-18 12:33 28.670787 -82.556914 201 33429ft 386kts
14-Jan-18 12:34 28.567608 -82.583468 201 33400ft 360kts
14-Jan-18 12:35 28.477029 -82.606902 202 33436ft 335kts
14-Jan-18 12:36 28.385937 -82.630487 202 33421ft 337kts
14-Jan-18 12:37 28.295339 -82.653811 202 33411ft 337kts
14-Jan-18 12:38 28.203921 -82.677064 202 33401ft 338kts
14-Jan-18 12:39 28.113316 -82.700104 202 33393ft 338kts
14-Jan-18 12:40 28.024377 -82.722725 202 33390ft 338kts
14-Jan-18 12:41 27.931896 -82.735287 177 33410ft 371kts
14-Jan-18 12:42 27.834773 -82.698798 174 33408ft 378kts
14-Jan-18 12:43 27.752409 -82.667988 174 33400ft 378kts
14-Jan-18 12:44 27.636271 -82.624802 174 33392ft 378kts
14-Jan-18 12:45 27.550567 -82.593095 173 33428ft 409kts
14-Jan-18 12:46 27.420159 -82.544506 173 33407ft 427kts
14-Jan-18 12:47 27.327011 -82.509854 173 33406ft 428kts
14-Jan-18 12:48 27.196188 -82.461214 173 33389ft 428kts
14-Jan-18 12:49 27.102921 -82.426535 173 33387ft 428kts
14-Jan-18 12:50 26.990104 -82.384601 172 33387ft 429kts
14-Jan-18 12:51 26.870968 -82.340322 172 33379ft 432kts
14-Jan-18 12:52 26.784694 -82.308238 172 33379ft 432kts
14-Jan-18 12:53 26.671348 -82.266077 171 33378ft 432kts
14-Jan-18 12:54 26.561164 -82.210941 148 33372ft 466kts
14-Jan-18 12:55 26.467410 -82.110685 146 33361ft 468kts
14-Jan-18 12:56 26.373399 -82.011034 146 33361ft 468kts
14-Jan-18 12:57 26.280123 -81.912293 146 33356ft 468kts
14-Jan-18 12:58 26.186125 -81.812733 146 33354ft 468kts
14-Jan-18 12:59 26.122284 -81.684000 116 33322ft 475kts
14-Jan-18 13:00 26.080695 -81.552583 117 31323ft 437kts
14-Jan-18 13:01 26.039581 -81.425238 116 29110ft 441kts
14-Jan-18 13:02 25.998417 -81.297236 115 26907ft 444kts
14-Jan-18 13:03 25.957050 -81.169265 114 24695ft 438kts
14-Jan-18 13:04 25.917202 -81.047444 114 22575ft 419kts
14-Jan-18 13:05 25.879364 -80.932549 114 20558ft 401kts
14-Jan-18 13:06 25.851386 -80.817283 88 18598ft 389kts
14-Jan-18 13:07 25.858545 -80.698905 87 16370ft 382kts
14-Jan-18 13:08 25.851373 -80.587528 121 14514ft 352kts
14-Jan-18 13:09 25.803392 -80.495460 122 12763ft 340kts
14-Jan-18 13:10 25.755947 -80.406650 122 11083ft 333kts
14-Jan-18 13:11 25.712848 -80.326023 121 9560ft 302kts
14-Jan-18 13:12 25.679423 -80.242198 112 9360ft 302kts
14-Jan-18 13:13 25.648203 -80.156393 112 9355ft 301kts
14-Jan-18 13:14 25.617723 -80.069928 109 9350ft 301kts
14-Jan-18 13:15 25.644343 -79.990745 22 8652ft 301kts
14-Jan-18 13:16 25.716250 -80.011340 304 6204ft 276kts
14-Jan-18 13:17 25.730049 -80.090527 277 3776ft 259kts
14-Jan-18 13:18 25.736673 -80.169662 278 2243ft 251kts
14-Jan-18 13:19 25.761386 -80.228273 302 1116ft 188kts
14-Jan-18 13:20 25.782493 -80.270191 303 241ft 152kts
14-Jan-18 13:21 25.795275 -80.294113 310 12ft 17kts
14-Jan-18 13:22 25.796387 -80.294595 3 12ft 0kts
14-Jan-18 13:23 25.796393 -80.294594 3 12ft 0kts
14-Jan-18 13:24 25.797020 -80.293515 117 12ft 10kts
14-Jan-18 13:25 25.796250 -80.292020 119 12ft 9kts
14-Jan-18 13:26 25.794643 -80.288846 119 12ft 18kts
14-Jan-18 13:27 25.794267 -80.288108 119 12ft 0kts
14-Jan-18 13:28 25.793147 -80.285972 122 12ft 0kts
14-Jan-18 13:29 25.793234 -80.285089 50 12ft 5kts
14-Jan-18 13:30 25.794136 -80.284061 9 12ft 1kts
14-Jan-18 13:31 25.794156 -80.284058 9 12ft 0kts
14-Jan-18 13:32 25.794156 -80.284058 9 12ft 0kts
14-Jan-18 13:33 25.784876 -80.274720 304 155ft 153kts
14-Jan-18 13:34 25.789759 -80.283786 305 23ft 150kts
14-Jan-18 13:35 25.776869 -80.258575 301 441ft 150kts

Navigation Log

Ident Type
Flight plan parsing failed, navigation log unavailable